Time;durP1;ratioP1;P1;durP2;ratioP2;P2;SDS_P1;SDS_P2;PMS_P1;PMS_P2;Temp;Humidity;BMP_temperature;BMP_pressure;BME280_temperature;BME280_humidity;BME280_pressure;Samples;Min_cycle;Max_cycle;Signal;HPM_P1;HPM_P2
2023/01/16 00:00:27;;;;;;;20.83;15.93;;;;;;;-2.31;100.00;95148.13;5084606;28;20090;-60
2023/01/16 00:02:52;;;;;;;20.30;16.58;;;;;;;-2.31;100.00;95144.72;5079388;28;20028;-60
2023/01/16 00:05:18;;;;;;;20.88;16.02;;;;;;;-2.32;100.00;95135.31;5087967;28;20028;-60
2023/01/16 00:07:43;;;;;;;19.73;14.57;;;;;;;-2.39;100.00;95150.25;5106907;28;20036;-60
2023/01/16 00:10:09;;;;;;;26.70;22.05;;;;;;;-2.34;100.00;95148.25;5085171;28;20448;-60
2023/01/16 00:12:34;;;;;;;22.10;16.60;;;;;;;-2.23;100.00;95139.16;5076410;28;20048;-60
2023/01/16 00:15:00;;;;;;;18.90;16.38;;;;;;;-2.26;100.00;95147.06;5083394;28;20090;-59
2023/01/16 00:17:25;;;;;;;20.10;15.68;;;;;;;-2.32;100.00;95138.72;5080559;28;20048;-70
2023/01/16 00:19:50;;;;;;;22.30;17.00;;;;;;;-2.32;100.00;95133.56;5086875;28;20020;-63
2023/01/16 00:22:16;;;;;;;22.70;16.60;;;;;;;-2.39;100.00;95124.47;5077222;28;20024;-63
2023/01/16 00:24:41;;;;;;;34.88;24.83;;;;;;;-2.41;100.00;95121.13;5087229;28;20485;-63
2023/01/16 00:27:07;;;;;;;26.05;20.35;;;;;;;-2.43;100.00;95122.09;5089599;28;20032;-63
2023/01/16 00:29:33;;;;;;;30.88;22.65;;;;;;;-2.47;100.00;95117.09;5089556;28;20016;-64
2023/01/16 00:31:58;;;;;;;26.23;21.15;;;;;;;-2.48;100.00;95102.56;5085391;28;20073;-64
2023/01/16 00:34:23;;;;;;;29.77;22.15;;;;;;;-2.42;100.00;95098.03;5077731;28;20044;-64
2023/01/16 00:36:49;;;;;;;34.35;22.23;;;;;;;-2.42;100.00;95088.53;5089858;28;20070;-61
2023/01/16 00:39:14;;;;;;;20.98;17.77;;;;;;;-2.48;100.00;95089.66;5088547;28;20401;-65
2023/01/16 00:41:39;;;;;;;17.20;13.95;;;;;;;-2.55;100.00;95077.16;5088843;28;20024;-66
2023/01/16 00:44:05;;;;;;;17.33;13.68;;;;;;;-2.58;100.00;95067.84;5089939;28;20503;-67
2023/01/16 00:46:30;;;;;;;10.73;9.23;;;;;;;-2.59;100.00;95071.34;5085990;28;20488;-67
2023/01/16 00:48:56;;;;;;;15.25;9.95;;;;;;;-2.57;100.00;95066.09;5083985;28;20561;-66
2023/01/16 00:51:22;;;;;;;11.35;10.15;;;;;;;-2.56;100.00;95065.19;5077619;28;20025;-66
2023/01/16 00:53:47;;;;;;;23.02;11.48;;;;;;;-2.54;100.00;95047.88;5088237;28;20024;-66
2023/01/16 00:56:13;;;;;;;12.27;10.45;;;;;;;-2.59;100.00;95048.97;5080273;28;20036;-60
2023/01/16 00:58:39;;;;;;;12.15;10.82;;;;;;;-2.61;100.00;95042.22;5086779;28;20050;-64
2023/01/16 01:01:05;;;;;;;17.10;11.23;;;;;;;-2.60;100.00;95054.22;5082140;28;20028;-63
2023/01/16 01:03:31;;;;;;;14.18;11.93;;;;;;;-2.66;100.00;95042.44;5062879;28;20432;-64
2023/01/16 01:05:56;;;;;;;13.88;10.45;;;;;;;-2.68;100.00;95028.81;5079830;28;20099;-64
2023/01/16 01:08:21;;;;;;;14.63;11.15;;;;;;;-2.69;100.00;95023.72;5086638;28;20039;-64
2023/01/16 01:10:47;;;;;;;14.48;10.63;;;;;;;-2.74;100.00;95016.25;5080762;28;20047;-64
2023/01/16 01:13:13;;;;;;;11.68;8.80;;;;;;;-2.77;100.00;95006.91;5078294;28;20020;-64
2023/01/16 01:15:38;;;;;;;10.00;7.93;;;;;;;-2.71;100.00;95010.09;5080423;28;20020;-61
2023/01/16 01:18:04;;;;;;;11.18;9.43;;;;;;;-2.74;100.00;95003.38;5085391;28;20027;-61
2023/01/16 01:20:29;;;;;;;9.48;8.50;;;;;;;-2.75;100.00;94999.94;5080762;28;20033;-60
2023/01/16 01:22:55;;;;;;;15.88;10.90;;;;;;;-2.75;100.00;94999.13;5086710;28;20016;-60
2023/01/16 01:25:20;;;;;;;15.20;10.80;;;;;;;-2.67;100.00;94990.97;5083249;28;20028;-60
2023/01/16 01:27:46;;;;;;;13.43;11.45;;;;;;;-2.74;100.00;94982.75;5085267;28;20076;-59
2023/01/16 01:30:11;;;;;;;12.98;11.63;;;;;;;-2.75;100.00;94979.31;5080298;28;20103;-60
2023/01/16 01:32:37;;;;;;;11.90;9.82;;;;;;;-2.72;100.00;94983.50;5086261;28;20016;-60
2023/01/16 01:35:04;;;;;;;10.85;9.15;;;;;;;-2.70;100.00;94978.25;5085326;28;20035;-61
2023/01/16 01:37:30;;;;;;;10.57;9.48;;;;;;;-2.78;100.00;94971.75;5082719;28;20043;-64
2023/01/16 01:39:55;;;;;;;12.82;11.30;;;;;;;-2.79;100.00;94966.66;5102868;28;20016;-64
2023/01/16 01:45:16;;;;;;;13.10;10.32;;;;;;;-2.85;100.00;94956.69;5082742;28;20067;-63
2023/01/16 01:48:01;;;;;;;10.80;8.60;;;;;;;-2.91;100.00;94955.25;5083881;28;20047;-63
2023/01/16 01:50:30;;;;;;;10.05;7.63;;;;;;;-2.93;100.00;94944.19;5082989;28;20044;-63
2023/01/16 01:52:59;;;;;;;8.13;7.43;;;;;;;-2.90;100.00;94931.16;5085352;28;20020;-61
2023/01/16 01:55:25;;;;;;;10.60;8.18;;;;;;;-2.87;100.00;94928.44;5080404;28;20028;-60
2023/01/16 01:57:56;;;;;;;9.55;8.57;;;;;;;-2.86;100.00;94931.84;5074458;28;20395;-60
2023/01/16 02:00:23;;;;;;;10.90;8.27;;;;;;;-2.94;100.00;94933.06;5083023;28;20086;-60
2023/01/16 02:02:58;;;;;;;10.85;9.77;;;;;;;-2.98;100.00;94921.25;5071138;28;20074;-60
2023/01/16 02:05:29;;;;;;;10.37;7.43;;;;;;;-3.00;100.00;94907.59;5080921;28;20042;-60
2023/01/16 02:07:54;;;;;;;11.38;9.40;;;;;;;-2.99;100.00;94898.97;5079240;28;20157;-60
2023/01/16 02:10:23;;;;;;;9.25;8.32;;;;;;;-3.03;100.00;94892.31;5077044;28;20545;-60
2023/01/16 02:12:49;;;;;;;7.43;6.30;;;;;;;-3.08;100.00;94890.00;5081703;28;20130;-65
2023/01/16 02:15:15;;;;;;;6.95;5.60;;;;;;;-3.08;100.00;94892.56;5077153;28;20021;-62
2023/01/16 02:20:31;;;;;;;5.75;5.18;;;;;;;-3.00;100.00;94881.03;5080131;28;20074;-66
2023/01/16 02:23:18;;;;;;;6.05;5.47;;;;;;;-2.92;100.00;94868.56;5078625;28;20086;-66
2023/01/16 02:26:13;;;;;;;5.97;5.47;;;;;;;-3.00;100.00;94857.84;5085190;28;20036;-66
2023/01/16 02:29:04;;;;;;;9.13;6.55;;;;;;;-3.04;100.00;94850.28;5077085;28;20031;-67
2023/01/16 02:32:13;;;;;;;6.25;5.65;;;;;;;-3.01;100.00;94838.97;5085282;28;20500;-65
2023/01/16 02:34:56;;;;;;;7.30;6.60;;;;;;;-2.95;100.00;94822.38;5018510;28;20040;-60
2023/01/16 02:37:54;;;;;;;6.18;5.53;;;;;;;-2.95;100.00;94812.91;5082974;28;20051;-65
2023/01/16 02:40:58;;;;;;;14.75;9.57;;;;;;;-2.97;100.00;94803.59;5076235;28;20478;-66
2023/01/16 02:43:41;;;;;;;15.35;10.10;;;;;;;-2.86;100.00;94795.28;5076990;28;20066;-66
2023/01/16 02:46:14;;;;;;;13.60;9.45;;;;;;;-2.93;100.00;94787.06;5081105;28;20405;-66
2023/01/16 02:49:02;;;;;;;15.02;10.30;;;;;;;-2.96;100.00;94770.03;5076156;28;20051;-66
2023/01/16 02:51:48;;;;;;;12.05;7.65;;;;;;;-2.99;100.00;94769.38;5086563;28;20028;-59
2023/01/16 02:54:16;;;;;;;;;;;;;;;-2.97;100.00;94752.06;5084859;28;20020;-59
2023/01/16 02:56:56;;;;;;;7.75;5.85;;;;;;;-2.94;100.00;94745.03;5084174;28;19931;-61
2023/01/16 02:59:24;;;;;;;6.05;5.25;;;;;;;-2.94;100.00;94742.44;5084898;28;20028;-61
2023/01/16 03:01:49;;;;;;;5.97;5.45;;;;;;;-2.89;100.00;94729.31;5081947;28;20428;-61
2023/01/16 03:04:44;;;;;;;7.05;5.50;;;;;;;-2.91;100.00;94720.81;5079229;28;20025;-61
2023/01/16 03:07:29;;;;;;;8.20;5.40;;;;;;;-2.95;100.00;94709.88;5087440;28;20513;-61
2023/01/16 03:10:21;;;;;;;8.07;5.78;;;;;;;-2.95;100.00;94696.16;5083767;28;20028;-61
2023/01/16 03:13:17;;;;;;;6.13;5.03;;;;;;;-2.96;100.00;94686.78;5080944;28;20082;-66
2023/01/16 03:16:04;;;;;;;6.78;5.13;;;;;;;-2.96;100.00;94684.19;5079990;28;20104;-69
2023/01/16 03:18:42;;;;;;;6.72;5.40;;;;;;;-2.95;100.00;94683.28;5080589;28;20031;-70
2023/01/16 03:21:13;;;;;;;6.13;5.53;;;;;;;-3.02;100.00;94677.63;5080668;28;20401;-69
2023/01/16 03:23:53;;;;;;;5.43;4.65;;;;;;;-3.04;100.00;94671.72;5080402;28;20028;-70
2023/01/16 03:26:44;;;;;;;6.03;4.60;;;;;;;-3.04;100.00;94653.72;5079374;28;20093;-69
2023/01/16 03:29:29;;;;;;;5.25;4.70;;;;;;;-3.03;100.00;94647.63;5080506;28;20065;-69
2023/01/16 03:32:06;;;;;;;6.50;5.30;;;;;;;-3.03;100.00;94629.59;5086851;28;20051;-60
2023/01/16 03:34:42;;;;;;;5.50;5.00;;;;;;;-3.04;100.00;94617.66;5082991;28;20498;-59
2023/01/16 03:37:13;;;;;;;8.05;6.65;;;;;;;-3.08;100.00;94616.16;5073944;28;20059;-59
2023/01/16 03:39:46;;;;;;;8.80;7.00;;;;;;;-3.11;100.00;94611.19;5079360;28;20023;-59
2023/01/16 03:42:24;;;;;;;11.32;7.97;;;;;;;-3.11;100.00;94596.56;5088538;28;20383;-62
2023/01/16 03:44:57;;;;;;;6.93;5.90;;;;;;;-3.06;100.00;94593.72;5085712;28;20032;-60
2023/01/16 03:47:30;;;;;;;6.30;5.70;;;;;;;-3.08;100.00;94580.97;5085549;28;20020;-60
2023/01/16 03:50:00;;;;;;;6.63;5.88;;;;;;;-3.08;100.00;94567.25;5088694;28;20028;-63
2023/01/16 03:52:34;;;;;;;8.65;6.70;;;;;;;-3.08;100.00;94552.63;5082788;28;20557;-60
2023/01/16 03:55:36;;;;;;;8.30;6.53;;;;;;;-3.06;100.00;94544.81;5087713;28;20024;-63
2023/01/16 03:58:09;;;;;;;7.55;6.78;;;;;;;-3.08;100.00;94534.59;5066096;28;20020;-64
2023/01/16 04:00:55;;;;;;;8.93;6.28;;;;;;;-3.13;100.00;94526.28;5084112;28;20024;-64
2023/01/16 04:03:33;;;;;;;6.15;5.63;;;;;;;-3.14;100.00;94518.66;5080634;28;20082;-63
2023/01/16 04:06:31;;;;;;;7.60;5.65;;;;;;;-3.13;100.00;94510.84;5079308;28;20020;-64
2023/01/16 04:08:58;;;;;;;5.82;5.22;;;;;;;-3.13;100.00;94512.59;5083376;28;20040;-66
2023/01/16 04:11:25;;;;;;;7.05;5.90;;;;;;;-3.20;100.00;94501.81;5083542;28;20055;-60
2023/01/16 04:13:53;;;;;;;7.85;5.32;;;;;;;-3.25;100.00;94486.63;5082097;28;20031;-69
2023/01/16 04:16:21;;;;;;;8.82;6.38;;;;;;;-3.26;100.00;94484.16;5084808;28;20016;-69
2023/01/16 04:18:49;;;;;;;7.70;6.40;;;;;;;-3.28;100.00;94475.69;5087219;28;20066;-70
2023/01/16 04:21:15;;;;;;;7.97;6.72;;;;;;;-3.31;100.00;94477.53;5085568;28;20025;-69
2023/01/16 04:23:41;;;;;;;11.23;8.55;;;;;;;-3.32;100.00;94464.75;5082661;28;20031;-69
2023/01/16 04:26:06;;;;;;;11.48;8.43;;;;;;;-3.34;100.00;94461.41;5083263;28;20020;-70
2023/01/16 04:28:32;;;;;;;32.85;22.05;;;;;;;-3.35;100.00;94455.44;5083377;28;20024;-66
2023/01/16 04:30:57;;;;;;;45.03;29.98;;;;;;;-3.32;100.00;94455.28;5082508;28;20024;-64
2023/01/16 04:33:22;;;;;;;28.67;20.80;;;;;;;-3.34;100.00;94440.84;5088170;28;20031;-60
2023/01/16 04:35:48;;;;;;;17.05;11.90;;;;;;;-3.37;100.00;94441.00;5080453;28;20133;-60
2023/01/16 04:38:13;;;;;;;9.93;8.05;;;;;;;-3.39;100.00;94448.81;5077195;28;20084;-59
2023/01/16 04:40:39;;;;;;;8.70;7.85;;;;;;;-3.39;100.00;94429.97;5085716;28;20027;-59
2023/01/16 04:43:04;;;;;;;51.53;32.38;;;;;;;-3.38;100.00;94417.00;5079196;28;20039;-59
2023/01/16 04:45:29;;;;;;;46.80;29.55;;;;;;;-3.35;100.00;94408.28;5082203;28;20576;-59
2023/01/16 04:47:55;;;;;;;28.20;19.17;;;;;;;-3.33;100.00;94393.59;5082999;28;20320;-69
2023/01/16 04:50:20;;;;;;;19.13;14.13;;;;;;;-3.33;100.00;94370.41;5080773;28;20024;-59
2023/01/16 04:52:46;;;;;;;9.75;7.93;;;;;;;-3.31;100.00;94360.84;5082863;28;20025;-68
2023/01/16 04:55:12;;;;;;;5.07;4.55;;;;;;;-3.29;100.00;94351.28;5080204;28;20050;-69
2023/01/16 04:57:37;;;;;;;4.80;4.35;;;;;;;-3.10;100.00;94345.06;5075248;28;20032;-69
2023/01/16 05:00:07;;;;;;;5.18;4.68;;;;;;;-3.07;100.00;94326.84;5087824;28;20024;-68
2023/01/16 05:02:32;;;;;;;7.28;6.47;;;;;;;-3.12;100.00;94318.56;5080529;28;20469;-68
2023/01/16 05:04:58;;;;;;;7.85;7.10;;;;;;;-3.10;100.00;94303.84;5080403;28;20107;-69
2023/01/16 05:07:26;;;;;;;12.20;11.05;;;;;;;-3.13;100.00;94299.69;5080212;28;20050;-61
2023/01/16 05:09:51;;;;;;;7.72;6.70;;;;;;;-3.11;100.00;94302.19;5086517;28;20516;-61
2023/01/16 05:12:17;;;;;;;7.13;6.38;;;;;;;-3.07;100.00;94291.63;5084990;28;20024;-66
2023/01/16 05:14:42;;;;;;;9.40;7.60;;;;;;;-3.06;100.00;94295.00;5086906;28;20020;-66
2023/01/16 05:17:07;;;;;;;7.15;6.45;;;;;;;-3.07;100.00;94293.34;5086132;28;20122;-66
2023/01/16 05:19:33;;;;;;;7.50;6.72;;;;;;;-3.07;100.00;94285.63;5075447;28;20042;-66
2023/01/16 05:21:58;;;;;;;11.68;7.97;;;;;;;-3.09;100.00;94267.72;5078171;28;20115;-66
2023/01/16 05:24:23;;;;;;;8.88;7.97;;;;;;;-3.04;100.00;94277.72;5082390;28;20023;-66
2023/01/16 05:26:49;;;;;;;8.75;7.72;;;;;;;-3.04;100.00;94259.69;5082604;28;20017;-68
2023/01/16 05:29:14;;;;;;;9.35;7.95;;;;;;;-3.03;100.00;94254.47;5081021;28;20016;-65
2023/01/16 05:31:39;;;;;;;9.60;8.63;;;;;;;-2.91;100.00;94245.16;5083769;28;20486;-68
2023/01/16 05:34:05;;;;;;;13.05;10.18;;;;;;;-2.96;100.00;94242.03;5089235;28;20115;-68
2023/01/16 05:36:30;;;;;;;11.90;10.07;;;;;;;-2.92;100.00;94240.91;5084852;28;20410;-67
2023/01/16 05:38:56;;;;;;;11.77;10.63;;;;;;;-2.84;100.00;94229.28;5084239;28;20044;-68
2023/01/16 05:41:21;;;;;;;9.38;8.48;;;;;;;-2.82;100.00;94235.19;5083851;28;20101;-68
2023/01/16 05:43:46;;;;;;;8.45;7.53;;;;;;;-2.79;100.00;94224.66;5080543;28;20024;-68
2023/01/16 05:46:12;;;;;;;8.02;7.15;;;;;;;-2.78;100.00;94216.03;5086386;28;20052;-69
2023/01/16 05:48:38;;;;;;;8.52;7.65;;;;;;;-2.78;100.00;94203.97;5087842;28;20042;-64
2023/01/16 05:51:04;;;;;;;14.25;8.50;;;;;;;-2.75;100.00;94202.97;5084292;28;20595;-61
2023/01/16 05:53:30;;;;;;;10.15;9.00;;;;;;;-2.68;100.00;94196.50;5082096;28;20079;-61
2023/01/16 05:55:56;;;;;;;10.73;9.48;;;;;;;-2.63;100.00;94194.44;5081467;28;20114;-61
2023/01/16 05:58:22;;;;;;;10.98;10.07;;;;;;;-2.65;100.00;94198.06;5086328;28;20076;-61
2023/01/16 06:00:47;;;;;;;12.57;11.38;;;;;;;-2.68;100.00;94188.75;5085009;28;20074;-61
2023/01/16 06:03:15;;;;;;;11.65;10.65;;;;;;;-2.68;100.00;94193.91;5078599;28;20027;-61
2023/01/16 06:05:41;;;;;;;12.90;11.60;;;;;;;-2.66;100.00;94206.69;5083387;28;20084;-67
2023/01/16 06:08:06;;;;;;;12.25;10.95;;;;;;;-2.61;100.00;94218.34;5086677;28;20439;-60
2023/01/16 06:10:31;;;;;;;11.55;10.55;;;;;;;-2.52;100.00;94213.56;5088581;28;20036;-60
2023/01/16 06:12:57;;;;;;;12.65;11.45;;;;;;;-2.54;100.00;94228.25;5080466;28;20020;-60
2023/01/16 06:15:22;;;;;;;11.60;10.50;;;;;;;-2.54;100.00;94212.78;5079164;28;20032;-60
2023/01/16 06:17:50;;;;;;;13.32;11.73;;;;;;;-2.49;100.00;94205.63;5068592;28;20035;-60
2023/01/16 06:20:16;;;;;;;12.00;10.80;;;;;;;-2.48;100.00;94181.50;5086455;28;20036;-60
2023/01/16 06:22:41;;;;;;;12.45;11.25;;;;;;;-2.46;100.00;94164.97;5081837;28;20561;-60
2023/01/16 06:25:07;;;;;;;21.45;18.58;;;;;;;-2.42;100.00;94180.28;5084294;28;20027;-60
2023/01/16 06:27:32;;;;;;;17.15;15.15;;;;;;;-2.42;100.00;94160.47;5084003;28;20016;-66
2023/01/16 06:29:58;;;;;;;87.30;55.25;;;;;;;-2.40;100.00;94147.50;5079981;28;20491;-67
2023/01/16 06:32:23;;;;;;;23.33;19.13;;;;;;;-2.37;100.00;94149.84;5084199;28;20024;-67
2023/01/16 06:34:49;;;;;;;25.80;23.00;;;;;;;-2.34;100.00;94154.81;5081681;28;20490;-67
2023/01/16 06:37:14;;;;;;;20.08;17.05;;;;;;;-2.19;100.00;94152.97;5084197;28;20035;-67
2023/01/16 06:39:39;;;;;;;13.80;12.60;;;;;;;-2.22;100.00;94160.91;5081847;28;20023;-67
2023/01/16 06:42:05;;;;;;;15.60;12.25;;;;;;;-2.17;100.00;94171.72;5082736;28;20062;-68
2023/01/16 06:44:32;;;;;;;31.33;26.88;;;;;;;-2.11;100.00;94160.19;5079315;28;20085;-68
2023/01/16 06:46:58;;;;;;;54.85;35.78;;;;;;;-2.11;100.00;94149.88;5083137;28;20025;-60
2023/01/16 06:49:23;;;;;;;42.00;28.92;;;;;;;-2.08;100.00;94154.81;5072908;28;20474;-67
2023/01/16 06:51:48;;;;;;;36.60;26.60;;;;;;;-2.03;100.00;94140.69;5083327;28;20115;-66
2023/01/16 06:54:14;;;;;;;23.38;20.73;;;;;;;-2.00;100.00;94137.06;5085795;28;20034;-66
2023/01/16 06:56:39;;;;;;;29.08;26.13;;;;;;;-1.93;100.00;94134.91;5082464;28;20035;-63
2023/01/16 06:59:05;;;;;;;49.97;44.80;;;;;;;-1.95;100.00;94140.19;5085458;28;20102;-65
2023/01/16 07:01:30;;;;;;;36.90;33.03;;;;;;;-1.92;100.00;94154.59;5089718;28;20489;-65
2023/01/16 07:03:55;;;;;;;23.00;20.42;;;;;;;-1.90;100.00;94143.25;5090681;28;20400;-63
2023/01/16 07:06:21;;;;;;;21.50;19.25;;;;;;;-1.87;100.00;94145.63;5089939;28;20056;-66
2023/01/16 07:08:51;;;;;;;20.73;18.58;;;;;;;-1.73;100.00;94151.63;5091477;28;20054;-60
2023/01/16 07:11:18;;;;;;;21.92;19.52;;;;;;;-1.73;100.00;94156.78;5090834;28;20036;-60
2023/01/16 07:13:43;;;;;;;16.67;14.98;;;;;;;-1.74;100.00;94166.25;5092610;28;20060;-60
2023/01/16 07:24:37;;;;;;;9.55;8.65;;;;;;;-1.69;100.00;94158.22;5092702;28;20019;-69
2023/01/16 07:27:05;;;;;;;9.55;8.73;;;;;;;-1.65;100.00;94146.75;5091962;28;20020;-63
2023/01/16 07:29:33;;;;;;;9.52;8.55;;;;;;;-1.56;100.00;94158.19;5093113;28;20713;-62
2023/01/16 07:32:02;;;;;;;13.23;11.90;;;;;;;-1.50;100.00;94152.59;5087423;28;20084;-62
2023/01/16 07:34:27;;;;;;;11.43;10.30;;;;;;;-1.41;100.00;94150.31;5092584;28;20020;-63
2023/01/16 07:36:52;;;;;;;15.43;14.00;;;;;;;-1.55;100.00;94152.09;5085394;28;20031;-63
2023/01/16 07:39:18;;;;;;;14.50;13.10;;;;;;;-1.58;100.00;94153.13;5092229;28;20028;-63
2023/01/16 07:41:43;;;;;;;13.80;12.23;;;;;;;-1.54;100.00;94155.53;5092525;28;20032;-65
2023/01/16 07:44:10;;;;;;;12.95;10.00;;;;;;;-1.37;100.00;94155.16;5092063;28;20035;-61
2023/01/16 07:46:35;;;;;;;11.20;9.98;;;;;;;-1.48;100.00;94158.47;5092116;28;20036;-68
2023/01/16 07:49:01;;;;;;;14.77;13.35;;;;;;;-1.44;100.00;94151.34;5090927;28;20110;-68
2023/01/16 07:51:26;;;;;;;31.70;28.45;;;;;;;-1.50;100.00;94162.13;5090597;28;20485;-68
2023/01/16 07:53:51;;;;;;;17.17;14.38;;;;;;;-1.55;100.00;94159.84;5091061;28;20061;-68
2023/01/16 07:56:17;;;;;;;20.20;18.15;;;;;;;-1.54;100.00;94152.94;5072728;28;20024;-68
2023/01/16 07:58:43;;;;;;;19.35;17.35;;;;;;;-1.52;100.00;94146.72;5091586;28;20028;-67
2023/01/16 08:01:09;;;;;;;21.50;19.33;;;;;;;-1.50;100.00;94156.94;5090649;28;20030;-67
2023/01/16 08:03:34;;;;;;;17.98;15.00;;;;;;;-1.50;100.00;94159.53;5091780;28;20103;-60
2023/01/16 08:06:02;;;;;;;17.88;16.00;;;;;;;-1.50;100.00;94160.34;5092213;28;20107;-63
2023/01/16 08:08:28;;;;;;;31.65;26.98;;;;;;;-1.49;100.00;94154.25;5091246;28;20032;-64
2023/01/16 08:10:55;;;;;;;27.08;24.35;;;;;;;-1.47;100.00;94144.63;5091764;28;20425;-63
2023/01/16 08:13:20;;;;;;;22.10;19.75;;;;;;;-1.37;100.00;94129.31;5091517;28;20022;-63
2023/01/16 08:15:46;;;;;;;23.10;20.70;;;;;;;-1.40;100.00;94108.88;5092179;28;20028;-64
2023/01/16 08:18:13;;;;;;;25.88;23.05;;;;;;;-1.29;100.00;94084.88;5089840;28;20032;-65
2023/01/16 08:20:38;;;;;;;25.67;23.02;;;;;;;-1.33;100.00;94076.56;5085172;28;20378;-60
2023/01/16 08:23:03;;;;;;;26.83;23.00;;;;;;;-1.35;100.00;94060.31;5091933;28;20035;-66
2023/01/16 08:25:29;;;;;;;21.38;19.23;;;;;;;-1.33;100.00;94049.91;5091515;28;20073;-63
2023/01/16 08:27:54;;;;;;;14.73;13.20;;;;;;;-1.33;100.00;94035.25;5091662;28;20024;-62
2023/01/16 08:30:19;;;;;;;13.43;12.18;;;;;;;-1.31;100.00;94024.78;5091615;28;20023;-64
2023/01/16 08:32:45;;;;;;;13.55;12.45;;;;;;;-1.27;100.00;94022.81;5091304;28;20403;-63
2023/01/16 08:35:11;;;;;;;15.38;14.07;;;;;;;-1.13;100.00;94026.97;5091588;28;20474;-63
2023/01/16 08:37:36;;;;;;;14.05;12.88;;;;;;;-1.06;100.00;94026.44;5090984;28;20528;-63
2023/01/16 08:40:04;;;;;;;16.15;14.55;;;;;;;-1.11;100.00;94033.66;5091491;28;20030;-60
2023/01/16 08:53:28;;;;;;;6.13;5.30;;;;;;;-0.29;100.00;94039.72;5091207;28;20027;-61
2023/01/16 08:55:53;;;;;;;6.15;5.38;;;;;;;0.02;100.00;94047.75;5091371;28;20036;-61
2023/01/16 08:58:21;;;;;;;6.05;4.85;;;;;;;0.11;100.00;94054.78;5090662;28;20028;-60
2023/01/16 09:00:48;;;;;;;7.68;6.97;;;;;;;0.08;100.00;94052.44;5091290;28;20028;-61
2023/01/16 09:03:14;;;;;;;11.90;7.68;;;;;;;0.12;100.00;94047.88;5090643;28;20024;-60
2023/01/16 09:05:39;;;;;;;7.60;6.32;;;;;;;-0.02;100.00;94030.78;5091419;28;20026;-60
2023/01/16 09:08:04;;;;;;;9.30;8.23;;;;;;;0.06;100.00;94032.78;5090884;28;21145;-60
2023/01/16 09:10:30;;;;;;;13.27;11.98;;;;;;;-0.22;100.00;94030.59;5091087;28;20020;-59
2023/01/16 09:15:40;;;;;;;21.13;19.33;;;;;;;-0.57;100.00;94041.81;5091044;28;20567;-60
2023/01/16 09:18:06;;;;;;;29.75;26.95;;;;;;;-0.67;100.00;94052.00;5090947;28;20024;-60
2023/01/16 09:20:31;;;;;;;17.17;15.68;;;;;;;-0.79;100.00;94038.25;5090854;28;20024;-60
2023/01/16 09:22:58;;;;;;;14.52;13.25;;;;;;;-0.79;100.00;94034.81;5090435;28;20077;-66
2023/01/16 09:25:24;;;;;;;16.75;15.35;;;;;;;-0.78;100.00;94039.88;5090431;28;20034;-67
2023/01/16 09:27:49;;;;;;;20.23;18.23;;;;;;;-0.72;100.00;94023.91;5090696;28;20107;-67
2023/01/16 09:30:14;;;;;;;19.58;17.67;;;;;;;-0.64;100.00;94013.00;5089048;28;20116;-67
2023/01/16 09:32:40;;;;;;;18.30;16.45;;;;;;;-0.68;100.00;94009.00;5089786;28;20466;-67
2023/01/16 09:35:05;;;;;;;19.63;17.75;;;;;;;-0.53;100.00;94014.78;5090452;28;20067;-66
2023/01/16 09:37:31;;;;;;;20.90;18.95;;;;;;;-0.62;100.00;93995.63;5090105;28;20554;-67
2023/01/16 09:39:56;;;;;;;30.05;27.15;;;;;;;-0.59;100.00;94013.47;5090426;28;20024;-67
2023/01/16 09:45:22;;;;;;;25.73;23.55;;;;;;;-0.61;100.00;94007.59;5090304;28;20540;-61
2023/01/16 09:47:53;;;;;;;22.17;20.10;;;;;;;-0.56;100.00;93996.94;5090100;28;20039;-62
2023/01/16 09:50:37;;;;;;;18.35;16.70;;;;;;;-0.58;100.00;93991.84;5089737;28;20085;-61
2023/01/16 09:58:43;;;;;;;25.88;23.17;;;;;;;-0.47;100.00;94016.09;5077159;28;20081;-67
2023/01/16 10:01:15;;;;;;;29.58;26.50;;;;;;;-0.37;100.00;93986.00;5089957;28;20493;-67
2023/01/16 10:03:43;;;;;;;21.45;19.35;;;;;;;-0.36;100.00;93981.66;5089924;28;20020;-68
2023/01/16 10:06:11;;;;;;;22.67;20.48;;;;;;;-0.34;100.00;93972.03;5089736;28;20106;-68
2023/01/16 10:08:42;;;;;;;23.48;21.17;;;;;;;-0.32;100.00;93955.47;5090107;28;20054;-67
2023/01/16 10:11:23;;;;;;;27.65;24.40;;;;;;;-0.43;100.00;93955.44;5089503;28;20023;-67
2023/01/16 10:14:17;;;;;;;27.63;24.85;;;;;;;-0.48;100.00;93947.22;5089944;28;20054;-67
2023/01/16 10:17:09;;;;;;;23.15;20.90;;;;;;;-0.47;100.00;93951.47;5090205;28;20069;-60
2023/01/16 10:20:05;;;;;;;22.77;20.60;;;;;;;-0.50;100.00;93941.34;5089120;28;20036;-61
2023/01/16 10:22:53;;;;;;;24.88;22.40;;;;;;;-0.56;100.00;93934.03;5089577;28;21938;-59
2023/01/16 10:25:28;;;;;;;30.02;26.77;;;;;;;-0.60;100.00;93939.44;5081907;28;20078;-59
2023/01/16 10:27:56;;;;;;;32.78;27.05;;;;;;;-0.49;100.00;93930.06;5087103;28;20032;-59
2023/01/16 10:30:21;;;;;;;29.10;25.90;;;;;;;-0.54;100.00;93932.19;5089549;28;20103;-59
2023/01/16 10:32:54;;;;;;;31.27;28.15;;;;;;;-0.54;100.00;93930.41;5089533;28;20054;-59
2023/01/16 10:35:29;;;;;;;35.90;32.25;;;;;;;-0.48;100.00;93934.28;5089301;28;20028;-60
2023/01/16 10:38:01;;;;;;;36.20;30.98;;;;;;;-0.49;100.00;93935.25;5089201;28;20052;-69
2023/01/16 10:40:29;;;;;;;28.55;25.23;;;;;;;-0.19;100.00;93929.47;5089239;28;20077;-65
2023/01/16 10:51:37;;;;;;;28.50;25.33;;;;;;;-0.06;100.00;93916.38;5089497;28;20524;-65
2023/01/16 10:54:02;;;;;;;36.08;30.90;;;;;;;-0.06;100.00;93902.59;5089532;28;20020;-65
2023/01/16 10:56:28;;;;;;;132.23;87.70;;;;;;;-0.09;100.00;93895.94;5088973;28;20031;-59
2023/01/16 10:58:53;;;;;;;80.75;61.63;;;;;;;-0.16;100.00;93898.16;5089314;28;20421;-61
2023/01/16 11:01:23;;;;;;;36.13;32.28;;;;;;;-0.22;100.00;93900.41;5089182;28;20020;-61
2023/01/16 11:03:51;;;;;;;36.50;30.10;;;;;;;-0.22;100.00;93896.06;5089562;28;20406;-61
2023/01/16 11:06:26;;;;;;;30.75;27.40;;;;;;;-0.23;100.00;93899.56;5089459;28;20038;-61
2023/01/16 11:09:02;;;;;;;99.40;75.30;;;;;;;-0.18;100.00;93900.06;5089273;28;20067;-61
2023/01/16 11:20:13;;;;;;;39.83;32.78;;;;;;;-0.08;100.00;93866.53;5078668;28;20081;-60
2023/01/16 11:22:40;;;;;;;38.50;34.60;;;;;;;-0.03;100.00;93858.38;5088723;28;20048;-61
2023/01/16 11:25:06;;;;;;;35.72;32.22;;;;;;;0.00;100.00;93860.75;5089239;28;20063;-60
2023/01/16 11:27:36;;;;;;;32.58;29.13;;;;;;;0.08;100.00;93855.75;5089044;28;20024;-60
2023/01/16 11:30:14;;;;;;;28.00;25.23;;;;;;;0.11;100.00;93855.50;5089190;28;20035;-60
2023/01/16 11:32:47;;;;;;;22.23;20.13;;;;;;;0.20;100.00;93841.00;5088714;28;20085;-59
2023/01/16 11:35:13;;;;;;;25.02;20.13;;;;;;;0.25;100.00;93838.88;5088897;28;20060;-67
2023/01/16 11:37:42;;;;;;;23.30;20.90;;;;;;;0.28;100.00;93835.22;5092462;28;20035;-66
2023/01/16 11:40:17;;;;;;;23.80;21.40;;;;;;;0.33;100.00;93824.47;5074431;28;20581;-66
2023/01/16 11:46:02;;;;;;;33.03;29.45;;;;;;;0.46;100.00;93819.94;5091971;28;20523;-66
2023/01/16 11:48:48;;;;;;;25.30;22.67;;;;;;;0.49;100.00;93817.09;5092417;28;20560;-66
2023/01/16 11:51:17;;;;;;;25.40;22.73;;;;;;;0.54;100.00;93803.78;5091524;28;20047;-67
2023/01/16 11:53:44;;;;;;;21.60;19.48;;;;;;;0.61;100.00;93806.69;5079496;28;20027;-59
2023/01/16 11:56:28;;;;;;;25.13;22.45;;;;;;;0.66;100.00;93804.53;5091943;28;20093;-69
2023/01/16 11:59:08;;;;;;;29.88;25.08;;;;;;;0.71;100.00;93792.84;5092411;28;20035;-63
2023/01/16 12:02:15;;;;;;;22.48;20.05;;;;;;;0.87;100.00;93791.53;5091902;28;20112;-63
2023/01/16 12:05:53;;;;;;;23.95;21.42;;;;;;;0.84;100.00;93790.03;5091620;28;20095;-63
2023/01/16 12:07:43;;;;;;;23.63;21.25;;;;;;;0.89;100.00;93786.22;5091716;28;20032;-63
2023/01/16 12:10:25;;;;;;;25.92;22.85;;;;;;;0.98;100.00;93793.19;5091739;28;20042;-63
2023/01/16 12:15:52;;;;;;;154.85;110.35;;;;;;;1.13;100.00;93784.13;5092070;28;20088;-63
2023/01/16 12:18:31;;;;;;;97.53;72.32;;;;;;;1.09;100.00;93777.56;5081281;28;20020;-63
2023/01/16 12:21:01;;;;;;;42.55;36.47;;;;;;;1.02;100.00;93776.47;5090861;28;20024;-64
2023/01/16 12:23:51;;;;;;;41.42;36.20;;;;;;;0.83;100.00;93778.03;5089538;28;20032;-63
2023/01/16 12:26:22;;;;;;;5.13;4.63;;;;;;;1.46;100.00;93760.59;5091748;28;20353;-63